Time;durP1;ratioP1;P1;durP2;ratioP2;P2;SDS_P1;SDS_P2;PMS_P1;PMS_P2;Temp;Humidity;BMP_temperature;BMP_pressure;BME280_temperature;BME280_humidity;BME280_pressure;Samples;Min_cycle;Max_cycle;Signal;HPM_P1;HPM_P2
2021/05/28 00:00:37;;;;;;;3.40;1.20;;;;;;;14.41;67.57;101134.94;5014972;28;20033;-94
2021/05/28 00:03:02;;;;;;;2.33;1.00;;;;;;;14.52;67.03;101135.03;5015179;28;20088;-94
2021/05/28 00:05:28;;;;;;;1.92;0.90;;;;;;;14.90;67.41;101134.03;5027021;28;20021;-94
2021/05/28 00:07:55;;;;;;;1.60;0.80;;;;;;;14.89;67.29;101135.00;5034822;28;20061;-94
2021/05/28 00:10:21;;;;;;;0.80;0.80;;;;;;;14.67;68.57;101128.66;5034733;28;20025;-94
2021/05/28 00:12:46;;;;;;;3.13;1.10;;;;;;;14.79;68.38;101147.19;5034641;28;20430;-94
2021/05/28 00:15:13;;;;;;;3.40;0.95;;;;;;;14.74;69.18;101151.97;5034528;28;20033;-94
2021/05/28 00:17:39;;;;;;;3.25;1.10;;;;;;;14.87;68.96;101147.47;5034553;28;20037;-95
2021/05/28 00:20:07;;;;;;;2.25;0.95;;;;;;;14.85;68.27;101141.47;5023325;28;20029;-95
2021/05/28 00:22:33;;;;;;;3.08;0.90;;;;;;;14.71;68.90;101154.84;5014584;28;20092;-94
2021/05/28 00:24:58;;;;;;;2.13;1.17;;;;;;;14.88;68.32;101147.34;5014745;28;20045;-94
2021/05/28 00:27:24;;;;;;;2.00;0.85;;;;;;;14.97;68.92;101144.97;5014421;28;20049;-95
2021/05/28 00:29:50;;;;;;;1.60;1.20;;;;;;;14.97;69.62;101151.13;5013895;28;20029;-94
2021/05/28 00:32:15;;;;;;;2.72;0.95;;;;;;;14.90;69.82;101149.03;5014104;28;20028;-95
2021/05/28 00:34:41;;;;;;;2.47;1.05;;;;;;;14.87;70.05;101153.59;5015090;28;20033;-94
2021/05/28 00:37:06;;;;;;;1.52;0.80;;;;;;;15.03;70.42;101152.47;5014618;28;20036;-93
2021/05/28 00:39:31;;;;;;;1.45;0.90;;;;;;;15.02;69.97;101154.25;5013355;28;20033;-94
2021/05/28 00:41:57;;;;;;;2.95;1.02;;;;;;;15.12;68.15;101154.41;5014397;28;20072;-94
2021/05/28 00:44:28;;;;;;;1.27;1.08;;;;;;;15.12;69.19;101162.34;5014275;28;20081;-95
2021/05/28 00:46:53;;;;;;;3.77;1.13;;;;;;;15.27;68.95;101165.66;5014307;28;20036;-94
2021/05/28 00:49:19;;;;;;;2.72;1.00;;;;;;;15.30;68.89;101167.22;5022794;28;20030;-95
2021/05/28 00:51:45;;;;;;;1.48;0.70;;;;;;;15.30;69.55;101160.09;5034159;28;20044;-95
2021/05/28 00:54:10;;;;;;;1.75;1.00;;;;;;;15.29;69.61;101163.72;5034066;28;20025;-95
2021/05/28 00:56:38;;;;;;;1.40;0.82;;;;;;;15.29;70.79;101161.09;5034094;28;20022;-95
2021/05/28 00:59:04;;;;;;;2.75;0.75;;;;;;;15.09;71.77;101165.22;5033912;28;20383;-94
2021/05/28 01:01:29;;;;;;;2.03;1.02;;;;;;;14.88;73.80;101162.38;5032020;28;20033;-94
2021/05/28 01:03:54;;;;;;;2.03;1.10;;;;;;;14.93;71.61;101165.53;5033758;28;20430;-94
2021/05/28 01:06:21;;;;;;;1.85;0.80;;;;;;;14.77;73.01;101168.47;5033879;28;20116;-95
2021/05/28 01:08:46;;;;;;;1.17;0.95;;;;;;;14.75;73.32;101161.59;5033568;28;20029;-94
2021/05/28 01:11:12;;;;;;;3.45;1.30;;;;;;;14.74;72.58;101159.91;5033644;28;20025;-94
2021/05/28 01:13:37;;;;;;;0.80;0.80;;;;;;;14.57;73.29;101161.97;5032195;28;20028;-95
2021/05/28 01:16:03;;;;;;;1.83;1.08;;;;;;;14.58;73.34;101160.19;5022060;28;20033;-94
2021/05/28 01:18:28;;;;;;;2.67;1.00;;;;;;;14.50;73.49;101168.63;5012642;28;20510;-93
2021/05/28 01:20:54;;;;;;;1.48;0.82;;;;;;;14.60;74.04;101169.69;5013464;28;20045;-95
2021/05/28 01:23:19;;;;;;;1.63;0.88;;;;;;;14.67;73.29;101167.44;5013632;28;20351;-94
2021/05/28 01:25:45;;;;;;;1.98;0.90;;;;;;;14.72;73.41;101161.81;5013517;28;20056;-94
2021/05/28 01:28:10;;;;;;;2.75;0.93;;;;;;;14.76;72.88;101163.28;5013401;28;20049;-94
2021/05/28 01:30:36;;;;;;;2.65;1.00;;;;;;;14.79;73.51;101161.25;5022930;28;20021;-94
2021/05/28 01:33:02;;;;;;;2.72;1.13;;;;;;;14.83;73.08;101175.06;5033256;28;20382;-95
2021/05/28 01:35:28;;;;;;;0.70;0.70;;;;;;;14.78;72.75;101158.72;5033039;28;20025;-94
2021/05/28 01:37:53;;;;;;;2.97;0.90;;;;;;;14.82;72.68;101161.03;5033169;28;20061;-94
2021/05/28 01:40:21;;;;;;;2.05;0.90;;;;;;;15.10;71.29;101166.06;5033014;28;20100;-94
2021/05/28 01:42:47;;;;;;;2.60;1.00;;;;;;;15.14;70.54;101163.06;5032640;28;20026;-94
2021/05/28 01:45:12;;;;;;;2.15;1.10;;;;;;;15.07;71.30;101173.28;5024400;28;20416;-95
2021/05/28 01:47:38;;;;;;;2.58;1.10;;;;;;;14.93;71.64;101170.81;5013216;28;20057;-94
2021/05/28 01:50:04;;;;;;;1.27;1.00;;;;;;;14.90;71.77;101172.84;5013213;28;20546;-94
2021/05/28 01:52:30;;;;;;;3.33;1.20;;;;;;;15.01;72.19;101175.53;5013063;28;20476;-94
2021/05/28 01:54:56;;;;;;;2.58;0.80;;;;;;;14.96;71.76;101186.44;5013159;28;20018;-95
2021/05/28 01:57:21;;;;;;;2.40;1.05;;;;;;;15.08;71.94;101193.47;5013060;28;20026;-94
2021/05/28 01:59:46;;;;;;;5.45;1.48;;;;;;;15.16;70.83;101192.06;5019527;28;20391;-94
2021/05/28 02:02:13;;;;;;;4.70;1.25;;;;;;;14.91;72.83;101191.25;5032790;28;20029;-93
2021/05/28 02:04:38;;;;;;;1.63;1.20;;;;;;;14.88;73.05;101183.53;5032752;28;20060;-93
2021/05/28 02:07:04;;;;;;;1.88;1.05;;;;;;;14.66;73.22;101185.09;5033179;28;20060;-94
2021/05/28 02:09:30;;;;;;;2.25;1.20;;;;;;;14.90;71.20;101181.63;5032492;28;20036;-95
2021/05/28 02:11:57;;;;;;;2.97;1.30;;;;;;;14.59;72.97;101189.16;5032375;28;20502;-94
2021/05/28 02:14:24;;;;;;;2.10;1.15;;;;;;;14.57;72.99;101188.41;5026113;28;20040;-93
2021/05/28 02:16:50;;;;;;;3.78;1.25;;;;;;;14.77;72.15;101178.19;5012622;28;20380;-94
2021/05/28 02:19:15;;;;;;;1.88;1.25;;;;;;;14.89;71.94;101177.28;5012668;28;20025;-94
2021/05/28 02:21:41;;;;;;;2.08;1.20;;;;;;;15.02;72.45;101180.69;5012618;28;20030;-94
2021/05/28 02:24:11;;;;;;;3.33;1.40;;;;;;;15.10;71.28;101176.66;5012719;28;20042;-93
2021/05/28 02:26:37;;;;;;;4.25;1.27;;;;;;;14.84;73.60;101182.06;5012485;28;20029;-94
2021/05/28 02:29:02;;;;;;;2.20;1.10;;;;;;;14.76;72.44;101179.16;5017362;28;20033;-95
2021/05/28 02:31:28;;;;;;;2.85;1.13;;;;;;;14.78;72.85;101177.22;5032469;28;20026;-95
2021/05/28 02:33:53;;;;;;;2.17;1.00;;;;;;;14.78;73.42;101166.66;5032671;28;20060;-94
2021/05/28 02:36:18;;;;;;;4.63;1.10;;;;;;;14.77;72.90;101168.47;5032546;28;20088;-94
2021/05/28 02:38:44;;;;;;;2.65;1.20;;;;;;;14.98;71.57;101160.72;5032148;28;20403;-95
2021/05/28 02:41:09;;;;;;;2.15;0.90;;;;;;;14.94;72.26;101166.38;5032037;28;20394;-94
2021/05/28 02:43:36;;;;;;;3.63;1.25;;;;;;;14.90;72.95;101170.19;5026456;28;20475;-95
2021/05/28 02:46:02;;;;;;;3.05;1.20;;;;;;;14.70;73.70;101169.88;5012571;28;20022;-95
2021/05/28 02:48:27;;;;;;;1.55;0.95;;;;;;;14.85;74.26;101152.03;5012244;28;20033;-94
2021/05/28 02:50:52;;;;;;;1.58;1.08;;;;;;;15.01;73.50;101157.03;5012429;28;20487;-94
2021/05/28 02:53:18;;;;;;;2.08;1.20;;;;;;;14.96;72.54;101165.28;5012623;28;20512;-94
2021/05/28 02:55:43;;;;;;;1.92;0.98;;;;;;;14.74;73.36;101165.19;5016501;28;20036;-93
2021/05/28 02:58:09;;;;;;;4.05;1.40;;;;;;;14.54;74.64;101164.81;5018002;28;20062;-94
2021/05/28 03:00:35;;;;;;;2.05;0.90;;;;;;;14.61;74.89;101174.03;5035970;28;20393;-94
2021/05/28 03:03:00;;;;;;;4.53;1.85;;;;;;;14.77;74.24;101170.25;5036128;28;20025;-95
2021/05/28 03:05:26;;;;;;;2.40;1.20;;;;;;;14.83;73.98;101175.06;5036103;28;20021;-94
2021/05/28 03:07:51;;;;;;;1.02;0.93;;;;;;;14.92;73.81;101173.56;5036146;28;20448;-94
2021/05/28 03:10:17;;;;;;;2.88;1.20;;;;;;;14.82;73.50;101179.53;5036190;28;20021;-95
2021/05/28 03:12:42;;;;;;;2.78;1.15;;;;;;;14.84;72.33;101190.84;5035559;28;20036;-94
2021/05/28 03:15:09;;;;;;;3.08;1.58;;;;;;;14.64;72.69;101186.16;5015830;28;20041;-94
2021/05/28 03:17:34;;;;;;;4.88;1.00;;;;;;;14.67;72.98;101186.78;5015923;28;20022;-94
2021/05/28 03:20:03;;;;;;;1.50;1.20;;;;;;;14.59;74.84;101197.09;5015927;28;20026;-94
2021/05/28 03:22:33;;;;;;;3.33;1.13;;;;;;;14.57;74.85;101201.59;5015864;28;20109;-94
2021/05/28 03:25:08;;;;;;;2.97;1.20;;;;;;;14.52;76.46;101206.38;5015870;28;20480;-94
2021/05/28 03:27:34;;;;;;;1.73;0.98;;;;;;;14.51;76.45;101195.91;5016822;28;20026;-94
2021/05/28 03:30:00;;;;;;;3.58;1.20;;;;;;;14.41;76.52;101201.84;5035496;28;20482;-95
2021/05/28 03:32:26;;;;;;;1.55;1.30;;;;;;;14.48;77.02;101196.97;5035396;28;20026;-94
2021/05/28 03:34:56;;;;;;;3.65;1.77;;;;;;;14.44;76.52;101206.09;5035687;28;20087;-95
2021/05/28 03:37:23;;;;;;;3.03;1.75;;;;;;;14.40;76.22;101192.25;5035383;28;20031;-95
2021/05/28 03:39:49;;;;;;;2.25;0.93;;;;;;;14.52;74.34;101203.72;5035461;28;20021;-94
2021/05/28 03:42:14;;;;;;;2.38;0.90;;;;;;;14.60;75.03;101196.13;5034473;28;20036;-95
2021/05/28 03:44:40;;;;;;;2.42;1.02;;;;;;;14.56;73.24;101189.38;5015283;28;20033;-94
2021/05/28 03:47:05;;;;;;;1.38;0.90;;;;;;;14.58;73.43;101198.03;5015522;28;20072;-95
2021/05/28 03:49:31;;;;;;;3.13;1.15;;;;;;;14.38;73.51;101195.94;5015523;28;20049;-95
2021/05/28 03:51:56;;;;;;;3.28;1.00;;;;;;;14.14;74.97;101202.03;5015604;28;20029;-95
2021/05/28 03:54:22;;;;;;;2.25;1.08;;;;;;;14.28;73.40;101201.03;5015539;28;20269;-95
2021/05/28 03:56:48;;;;;;;3.22;0.85;;;;;;;14.48;73.06;101196.97;5015650;28;20034;-94
2021/05/28 03:59:13;;;;;;;1.85;1.23;;;;;;;14.36;74.47;101205.78;5015891;28;20037;-96
2021/05/28 04:01:39;;;;;;;2.55;0.95;;;;;;;14.31;75.52;101195.53;5015216;28;20026;-95
2021/05/28 04:04:04;;;;;;;2.58;0.80;;;;;;;14.44;75.82;101206.91;5015214;28;20080;-94
2021/05/28 04:06:30;;;;;;;2.85;1.20;;;;;;;14.40;75.54;101202.81;5014893;28;20021;-95
2021/05/28 04:08:55;;;;;;;2.95;1.10;;;;;;;14.37;76.18;101202.19;5015325;28;20034;-94
2021/05/28 04:11:21;;;;;;;1.90;0.80;;;;;;;14.29;76.33;101202.72;5015342;28;20026;-96
2021/05/28 04:13:46;;;;;;;3.35;1.00;;;;;;;14.32;77.40;101206.97;5031842;28;20080;-95
2021/05/28 04:16:12;;;;;;;2.63;1.02;;;;;;;14.03;76.31;101209.84;5034856;28;20033;-94
2021/05/28 04:18:37;;;;;;;2.30;1.02;;;;;;;13.99;77.36;101218.94;5034765;28;20018;-94
2021/05/28 04:21:03;;;;;;;2.70;1.38;;;;;;;13.96;75.54;101219.13;5034596;28;20029;-93
2021/05/28 04:23:28;;;;;;;2.47;1.00;;;;;;;14.09;75.79;101222.59;5034682;28;20021;-94
2021/05/28 04:25:53;;;;;;;3.58;1.40;;;;;;;14.21;73.52;101211.19;5034461;28;20112;-94
2021/05/28 04:28:19;;;;;;;1.73;0.80;;;;;;;14.24;73.27;101210.13;5019476;28;20034;-95
2021/05/28 04:30:45;;;;;;;2.83;1.40;;;;;;;14.33;74.15;101206.81;5034399;28;20034;-94
2021/05/28 04:33:10;;;;;;;3.63;1.10;;;;;;;14.34;74.43;101197.13;5033034;28;20034;-94
2021/05/28 04:35:36;;;;;;;2.03;1.10;;;;;;;14.34;74.86;101205.06;5034184;28;20026;-94
2021/05/28 04:38:02;;;;;;;0.98;0.88;;;;;;;14.32;75.76;101212.25;5034438;28;20033;-94
2021/05/28 04:40:29;;;;;;;3.15;1.00;;;;;;;14.16;76.70;101215.97;5034302;28;20105;-95
2021/05/28 04:42:55;;;;;;;2.17;0.98;;;;;;;14.25;74.87;101220.56;5024071;28;20040;-94
2021/05/28 04:45:21;;;;;;;1.88;0.90;;;;;;;14.32;72.26;101209.59;5014374;28;20034;-94
2021/05/28 04:47:46;;;;;;;1.83;0.73;;;;;;;14.51;70.53;101214.41;5014147;28;20030;-95
2021/05/28 04:50:12;;;;;;;1.42;0.77;;;;;;;14.50;71.88;101207.44;5014022;28;20037;-95
2021/05/28 04:52:38;;;;;;;3.50;0.77;;;;;;;14.50;73.43;101210.09;5017098;28;20030;-95
2021/05/28 04:55:04;;;;;;;1.98;0.70;;;;;;;14.52;73.40;101206.38;5024845;28;20088;-94
2021/05/28 04:57:29;;;;;;;3.78;0.95;;;;;;;14.67;72.99;101213.22;5014390;28;20100;-96
2021/05/28 04:59:54;;;;;;;3.17;0.80;;;;;;;14.67;71.72;101213.22;5025177;28;20124;-95
2021/05/28 05:02:20;;;;;;;1.65;0.90;;;;;;;14.73;71.65;101216.38;5016792;28;20057;-95
2021/05/28 05:04:45;;;;;;;1.77;0.90;;;;;;;14.78;71.75;101217.72;5022738;28;20064;-95
2021/05/28 05:07:10;;;;;;;2.67;0.90;;;;;;;14.67;71.83;101212.38;5019735;28;20021;-95
2021/05/28 05:09:36;;;;;;;2.25;0.82;;;;;;;14.70;72.37;101222.72;5024007;28;20157;-95
2021/05/28 05:12:03;;;;;;;2.70;0.65;;;;;;;14.65;72.50;101220.44;5017339;28;20026;-94
2021/05/28 05:14:28;;;;;;;3.45;1.10;;;;;;;14.77;72.38;101220.47;5025091;28;20434;-96
2021/05/28 05:16:54;;;;;;;2.15;1.00;;;;;;;14.76;74.04;101222.28;5029365;28;20061;-96
2021/05/28 05:19:19;;;;;;;2.65;0.80;;;;;;;14.84;74.51;101221.72;5021995;28;20025;-89
2021/05/28 05:21:44;;;;;;;0.85;0.60;;;;;;;14.88;74.82;101225.84;5019441;28;20076;-89
2021/05/28 05:24:10;;;;;;;1.15;0.68;;;;;;;14.90;73.49;101225.72;5016094;28;20105;-88
2021/05/28 05:26:37;;;;;;;2.08;0.98;;;;;;;14.95;73.76;101232.38;5024265;28;20038;-93
2021/05/28 05:29:03;;;;;;;1.10;1.00;;;;;;;15.14;74.74;101231.00;5018884;28;20034;-90
2021/05/28 05:31:29;;;;;;;1.90;0.63;;;;;;;15.10;73.29;101237.47;5018339;28;20538;-91
2021/05/28 05:33:54;;;;;;;5.85;0.75;;;;;;;15.10;73.74;101248.06;5017865;28;20042;-88
2021/05/28 05:36:20;;;;;;;1.70;0.63;;;;;;;15.23;74.15;101240.91;5021081;28;20032;-88
2021/05/28 05:38:45;;;;;;;4.10;0.60;;;;;;;15.35;74.19;101242.63;5024117;28;20026;-88
2021/05/28 05:41:10;;;;;;;1.70;0.60;;;;;;;15.55;73.45;101242.94;5020744;28;20446;-88
2021/05/28 05:43:36;;;;;;;1.13;0.50;;;;;;;15.50;73.13;101237.16;5016971;28;20061;-87
2021/05/28 05:46:02;;;;;;;3.33;0.73;;;;;;;15.61;74.15;101243.31;5023590;28;20033;-88
2021/05/28 05:48:28;;;;;;;2.05;0.80;;;;;;;15.71;75.11;101246.09;5023128;28;20531;-90
2021/05/28 05:50:54;;;;;;;2.97;0.98;;;;;;;15.89;74.32;101248.34;5012667;28;20033;-87
2021/05/28 05:53:19;;;;;;;2.65;1.00;;;;;;;15.97;74.18;101245.94;5012751;28;20100;-86
2021/05/28 05:55:45;;;;;;;3.05;0.93;;;;;;;15.96;74.42;101244.28;5011351;28;20391;-86
2021/05/28 05:58:10;;;;;;;1.05;0.85;;;;;;;16.00;73.44;101243.06;5011103;28;20436;-87
2021/05/28 06:00:35;;;;;;;1.38;0.75;;;;;;;16.14;70.57;101248.13;5015910;28;20059;-87
2021/05/28 06:03:02;;;;;;;1.52;0.70;;;;;;;16.45;67.37;101237.78;5027558;28;20399;-88
2021/05/28 06:05:28;;;;;;;5.38;2.40;;;;;;;16.51;66.53;101239.94;5024342;28;20018;-87
2021/05/28 06:07:53;;;;;;;3.45;1.73;;;;;;;16.43;67.78;101242.34;5012236;28;20480;-88
2021/05/28 06:10:19;;;;;;;6.10;2.17;;;;;;;16.69;64.46;101240.25;5020297;28;20021;-88
2021/05/28 06:12:44;;;;;;;2.88;1.48;;;;;;;16.62;63.66;101237.25;5031900;28;20025;-89
2021/05/28 06:15:10;;;;;;;4.93;2.22;;;;;;;16.71;62.98;101237.50;5024904;28;20030;-88
2021/05/28 06:17:35;;;;;;;8.82;3.60;;;;;;;16.94;63.26;101244.47;5013137;28;20109;-89
2021/05/28 06:20:01;;;;;;;4.65;2.72;;;;;;;16.97;62.80;101236.22;5011191;28;20165;-89
2021/05/28 06:22:26;;;;;;;4.50;2.63;;;;;;;17.00;64.14;101240.44;5013048;28;20026;-88
2021/05/28 06:24:52;;;;;;;4.60;2.28;;;;;;;17.02;62.84;101235.84;5024587;28;20036;-88
2021/05/28 06:27:18;;;;;;;2.78;1.55;;;;;;;16.96;61.62;101228.41;5012137;28;20128;-89
2021/05/28 06:29:44;;;;;;;4.47;1.40;;;;;;;16.96;64.00;101234.56;5015048;28;20535;-89
2021/05/28 06:32:09;;;;;;;2.83;1.58;;;;;;;16.88;64.23;101231.66;5015561;28;20034;-89
2021/05/28 06:34:35;;;;;;;4.85;1.65;;;;;;;16.93;64.89;101241.94;5023090;28;20104;-89
2021/05/28 06:37:01;;;;;;;1.75;1.10;;;;;;;17.20;63.96;101242.31;5012195;28;20022;-89
2021/05/28 06:39:27;;;;;;;4.40;1.48;;;;;;;17.33;63.65;101239.47;5011801;28;20025;-89
2021/05/28 06:41:53;;;;;;;6.35;1.88;;;;;;;17.41;63.57;101239.66;5011791;28;20292;-89
2021/05/28 06:44:23;;;;;;;5.00;2.42;;;;;;;17.36;63.61;101239.22;5011779;28;20276;-89
2021/05/28 06:46:52;;;;;;;2.88;1.55;;;;;;;17.37;63.43;101232.94;5019630;28;20028;-88
2021/05/28 06:49:19;;;;;;;5.15;2.00;;;;;;;17.33;63.16;101239.47;5017622;28;20042;-88
2021/05/28 06:51:45;;;;;;;4.05;1.60;;;;;;;17.42;62.56;101236.06;5018602;28;20494;-88
2021/05/28 06:54:11;;;;;;;3.15;1.30;;;;;;;17.41;61.26;101231.69;5015355;28;20468;-88
2021/05/28 06:56:37;;;;;;;3.50;1.45;;;;;;;17.52;62.48;101235.28;5011658;28;20105;-88
2021/05/28 06:59:05;;;;;;;1.33;1.00;;;;;;;17.58;61.53;101229.47;5012595;28;20026;-88
2021/05/28 07:01:30;;;;;;;5.82;1.50;;;;;;;17.50;62.85;101237.22;5012058;28;20030;-89
2021/05/28 07:04:00;;;;;;;3.63;1.48;;;;;;;17.75;60.66;101230.66;5011201;28;20116;-88
2021/05/28 07:06:25;;;;;;;5.28;1.05;;;;;;;17.74;59.69;101243.13;5012075;28;20022;-88
2021/05/28 07:08:51;;;;;;;3.08;1.20;;;;;;;17.65;57.58;101230.59;5013401;28;20026;-88
2021/05/28 07:11:16;;;;;;;1.70;1.02;;;;;;;17.44;57.34;101243.91;5011546;28;20476;-88
2021/05/28 07:13:41;;;;;;;2.88;1.23;;;;;;;17.43;58.95;101248.34;5023163;28;20549;-88
2021/05/28 07:16:07;;;;;;;3.78;0.93;;;;;;;17.50;53.93;101242.53;5031233;28;20438;-88
2021/05/28 07:18:32;;;;;;;4.45;0.85;;;;;;;17.51;53.44;101249.53;5024663;28;20080;-88
2021/05/28 07:20:57;;;;;;;3.63;0.98;;;;;;;17.68;52.64;101256.91;5021474;28;20049;-87
2021/05/28 07:23:24;;;;;;;3.35;0.90;;;;;;;17.80;49.27;101252.38;5031084;28;20033;-88
2021/05/28 07:25:50;;;;;;;3.22;0.77;;;;;;;17.68;48.07;101254.25;5024594;28;20083;-89
2021/05/28 07:28:15;;;;;;;2.55;0.90;;;;;;;17.60;49.80;101254.06;5010798;28;20025;-88
2021/05/28 07:30:41;;;;;;;2.03;1.05;;;;;;;17.72;49.20;101258.34;5012429;28;20491;-88
2021/05/28 07:33:06;;;;;;;5.45;1.20;;;;;;;17.68;49.82;101267.53;5010922;28;20025;-89
2021/05/28 07:35:31;;;;;;;5.78;0.93;;;;;;;17.65;51.42;101265.13;5019497;28;20498;-89
2021/05/28 07:37:57;;;;;;;2.72;0.75;;;;;;;17.69;50.08;101263.91;5011753;28;20029;-89
2021/05/28 07:40:22;;;;;;;2.72;0.90;;;;;;;17.58;51.15;101266.63;5023335;28;20034;-89
2021/05/28 07:42:50;;;;;;;2.40;0.77;;;;;;;17.71;51.31;101264.59;5019972;28;20060;-89
2021/05/28 07:45:16;;;;;;;3.53;1.10;;;;;;;17.79;49.84;101267.47;5016875;28;20022;-89
2021/05/28 07:47:41;;;;;;;2.17;0.93;;;;;;;17.90;49.62;101268.41;5014890;28;20088;-89
2021/05/28 07:50:08;;;;;;;2.53;1.10;;;;;;;18.04;49.85;101270.72;5024756;28;20044;-88
2021/05/28 07:52:33;;;;;;;2.47;1.00;;;;;;;18.18;49.59;101265.03;5030668;28;20426;-88
2021/05/28 07:54:59;;;;;;;1.88;1.02;;;;;;;18.26;49.12;101258.25;5034619;28;20039;-88
2021/05/28 07:57:24;;;;;;;1.70;0.65;;;;;;;18.26;50.06;101260.91;5034598;28;20026;-88
2021/05/28 07:59:50;;;;;;;2.08;0.95;;;;;;;18.48;49.54;101268.66;5034472;28;20037;-88
2021/05/28 08:02:18;;;;;;;2.72;0.95;;;;;;;18.54;49.46;101259.31;5034452;28;20092;-88
2021/05/28 08:04:44;;;;;;;1.90;1.00;;;;;;;18.66;49.12;101268.03;5034529;28;20072;-88
2021/05/28 08:07:09;;;;;;;2.38;1.20;;;;;;;18.82;47.41;101255.09;5034509;28;20423;-88
2021/05/28 08:09:34;;;;;;;4.30;1.63;;;;;;;18.71;48.31;101266.66;5034478;28;20109;-88
2021/05/28 08:12:00;;;;;;;9.85;2.10;;;;;;;18.86;49.54;101269.81;5034289;28;20026;-88
2021/05/28 08:14:25;;;;;;;4.28;1.35;;;;;;;19.06;47.92;101262.69;5034366;28;20074;-88
2021/05/28 08:16:50;;;;;;;4.72;1.20;;;;;;;18.98;48.27;101263.38;5034378;28;20125;-88
2021/05/28 08:19:16;;;;;;;5.80;1.75;;;;;;;18.91;49.24;101262.22;5034318;28;20026;-88
2021/05/28 08:21:41;;;;;;;3.28;1.10;;;;;;;18.78;49.55;101261.63;5034229;28;20025;-88
2021/05/28 08:24:07;;;;;;;4.03;1.10;;;;;;;18.98;49.13;101265.19;5017362;28;20033;-88
2021/05/28 08:26:32;;;;;;;3.40;1.38;;;;;;;18.98;50.02;101263.38;5024019;28;20029;-88
2021/05/28 08:28:58;;;;;;;4.80;1.50;;;;;;;19.01;50.65;101263.06;5033967;28;20034;-88
2021/05/28 08:31:23;;;;;;;4.75;1.55;;;;;;;19.36;48.49;101256.38;5025532;28;20120;-88
2021/05/28 08:33:48;;;;;;;3.58;1.35;;;;;;;19.25;48.50;101253.84;5014098;28;20050;-88
2021/05/28 08:36:14;;;;;;;5.70;1.63;;;;;;;19.41;48.10;101258.59;5014285;28;20026;-88
2021/05/28 08:38:39;;;;;;;5.32;1.80;;;;;;;19.20;49.05;101251.63;5012414;28;20044;-88
2021/05/28 08:41:05;;;;;;;3.58;1.42;;;;;;;19.24;48.86;101249.53;5009788;28;20026;-88
2021/05/28 08:43:31;;;;;;;3.80;1.45;;;;;;;19.12;50.59;101247.97;4995041;28;20030;-88
2021/05/28 08:46:01;;;;;;;2.50;1.50;;;;;;;19.09;51.39;101251.75;5000391;28;20033;-89
2021/05/28 08:48:26;;;;;;;4.82;1.50;;;;;;;19.17;51.41;101241.25;5033980;28;20075;-88
2021/05/28 08:50:52;;;;;;;5.10;1.67;;;;;;;19.03;51.70;101245.16;5031272;28;20464;-88
2021/05/28 08:53:17;;;;;;;3.35;1.60;;;;;;;19.38;51.02;101249.09;5033483;28;20030;-88
2021/05/28 08:55:45;;;;;;;5.78;1.50;;;;;;;19.46;50.25;101244.88;5033790;28;20574;-88
2021/05/28 08:58:16;;;;;;;3.42;1.60;;;;;;;19.48;49.90;101246.41;4994778;28;20058;-89
2021/05/28 09:00:45;;;;;;;2.90;1.67;;;;;;;19.39;50.72;101239.28;4994349;28;20041;-89
2021/05/28 09:03:21;;;;;;;2.97;1.45;;;;;;;19.39;51.25;101240.13;5014343;28;20144;-89
2021/05/28 09:05:48;;;;;;;4.55;2.22;;;;;;;19.59;51.24;101240.09;5013632;28;20053;-88
2021/05/28 09:08:23;;;;;;;11.25;1.92;;;;;;;19.54;53.01;101237.84;5033443;28;20108;-88
2021/05/28 09:10:48;;;;;;;5.88;2.10;;;;;;;19.32;52.56;101247.00;5033010;28;20036;-88
2021/05/28 09:13:22;;;;;;;3.05;1.60;;;;;;;19.42;51.49;101234.50;5012821;28;20038;-88
2021/05/28 09:16:07;;;;;;;4.75;1.60;;;;;;;19.20;53.65;101240.97;5013351;28;20026;-88
2021/05/28 09:19:00;;;;;;;8.35;1.67;;;;;;;19.38;54.29;101246.44;5013626;28;20062;-88
2021/05/28 09:21:30;;;;;;;6.38;1.52;;;;;;;19.44;54.78;101247.69;5013273;28;20042;-88
2021/05/28 09:23:57;;;;;;;3.65;1.30;;;;;;;19.41;55.24;101247.94;5013146;28;20029;-89
2021/05/28 09:26:28;;;;;;;5.88;1.55;;;;;;;19.45;53.38;101253.84;5019556;28;20029;-88
2021/05/28 09:28:54;;;;;;;3.15;1.38;;;;;;;19.50;53.28;101246.28;5032855;28;20083;-88
2021/05/28 09:31:28;;;;;;;5.00;1.70;;;;;;;19.47;53.77;101249.22;5026048;28;20026;-89
2021/05/28 09:33:56;;;;;;;4.75;1.60;;;;;;;19.69;53.23;101245.38;5014391;28;20045;-89
2021/05/28 09:36:25;;;;;;;4.10;1.52;;;;;;;19.56;55.74;101245.72;5015663;28;20053;-88
2021/05/28 09:39:15;;;;;;;3.63;1.60;;;;;;;19.44;60.47;101253.00;5013455;28;20049;-89
2021/05/28 09:41:49;;;;;;;2.25;1.42;;;;;;;19.65;59.80;101257.31;5021504;28;20048;-88
2021/05/28 09:44:24;;;;;;;5.05;1.88;;;;;;;19.81;56.95;101255.78;5015168;28;20018;-89
2021/05/28 09:47:14;;;;;;;2.78;1.83;;;;;;;19.54;58.51;101255.66;5016480;28;20394;-93
2021/05/28 09:49:48;;;;;;;9.00;2.10;;;;;;;19.72;60.26;101251.31;4997747;28;20085;-92
2021/05/28 09:52:22;;;;;;;4.40;1.98;;;;;;;20.03;60.13;101252.94;5012744;28;20487;-93
2021/05/28 09:55:03;;;;;;;4.00;2.45;;;;;;;19.76;60.50;101252.72;5012639;28;20065;-93
2021/05/28 09:57:36;;;;;;;3.47;1.77;;;;;;;19.62;58.81;101253.13;5012324;28;20080;-93
2021/05/28 10:00:29;;;;;;;3.10;1.80;;;;;;;19.59;60.69;101251.59;5012503;28;20117;-93
2021/05/28 10:03:23;;;;;;;3.17;2.03;;;;;;;19.73;59.64;101253.00;5012398;28;20026;-91
2021/05/28 10:05:53;;;;;;;2.60;1.83;;;;;;;19.73;60.86;101252.19;5012339;28;20022;-92
2021/05/28 10:08:20;;;;;;;4.50;1.90;;;;;;;19.88;58.99;101241.88;5012249;28;20026;-91
2021/05/28 10:10:47;;;;;;;4.28;1.90;;;;;;;20.05;59.21;101249.13;5011938;28;20471;-91
2021/05/28 10:13:14;;;;;;;3.92;1.95;;;;;;;20.25;57.63;101246.41;5012483;28;20464;-91
2021/05/28 10:15:45;;;;;;;3.97;1.88;;;;;;;20.37;58.59;101245.22;5016253;28;20088;-91
2021/05/28 10:18:12;;;;;;;3.83;2.17;;;;;;;20.42;56.88;101237.63;5012478;28;20042;-91
2021/05/28 10:20:39;;;;;;;7.00;2.42;;;;;;;20.78;57.97;101243.06;5012115;28;20068;-91
2021/05/28 10:23:07;;;;;;;4.57;2.03;;;;;;;20.87;58.15;101241.28;5012080;28;20082;-91
2021/05/28 10:25:34;;;;;;;4.43;2.53;;;;;;;20.94;58.87;101239.72;5012116;28;20037;-91
2021/05/28 10:28:02;;;;;;;4.22;2.10;;;;;;;21.15;55.19;101237.59;5012066;28;20022;-92
2021/05/28 10:30:36;;;;;;;4.57;1.80;;;;;;;21.35;53.02;101230.25;5012037;28;20022;-91
2021/05/28 10:33:24;;;;;;;3.80;1.20;;;;;;;21.71;53.73;101230.19;5012027;28;20492;-91
2021/05/28 10:35:52;;;;;;;2.10;1.40;;;;;;;21.50;53.14;101221.69;5012126;28;20068;-92
2021/05/28 10:38:29;;;;;;;3.17;1.58;;;;;;;21.96;54.15;101227.69;5010838;28;20080;-91
2021/05/28 10:40:57;;;;;;;6.05;1.88;;;;;;;22.09;56.27;101227.22;5011068;28;20030;-90
2021/05/28 10:43:23;;;;;;;3.13;1.60;;;;;;;22.60;54.23;101229.97;5018447;28;20028;-90
2021/05/28 10:46:07;;;;;;;2.65;1.23;;;;;;;22.85;48.78;101228.16;5030194;28;20025;-90
2021/05/28 10:48:38;;;;;;;4.05;1.55;;;;;;;22.99;48.57;101224.03;5020282;28;20030;-88
2021/05/28 10:51:07;;;;;;;2.67;1.35;;;;;;;23.14;48.28;101222.38;5011928;28;20033;-88
2021/05/28 10:53:33;;;;;;;2.58;1.23;;;;;;;23.52;46.08;101222.72;5011814;28;20022;-88
2021/05/28 10:56:13;;;;;;;1.65;0.93;;;;;;;24.19;46.90;101216.19;5011727;28;20040;-88
2021/05/28 10:58:57;;;;;;;2.33;1.23;;;;;;;24.50;45.44;101214.41;4991361;28;20019;-88
2021/05/28 11:01:31;;;;;;;2.85;1.10;;;;;;;25.04;43.25;101215.38;4992435;28;20507;-89
2021/05/28 11:04:07;;;;;;;2.08;0.90;;;;;;;25.30;39.53;101218.56;4992431;28;20039;-89
2021/05/28 11:06:56;;;;;;;2.33;1.00;;;;;;;25.84;36.43;101214.03;4992189;28;20440;-89
2021/05/28 11:09:37;;;;;;;2.50;0.70;;;;;;;25.72;38.57;101216.34;4990602;28;20498;-89
2021/05/28 11:12:13;;;;;;;1.50;0.88;;;;;;;25.84;38.05;101216.72;4992246;28;20050;-89
2021/05/28 11:14:57;;;;;;;2.83;0.93;;;;;;;25.63;37.84;101203.97;4992905;28;20037;-88
2021/05/28 11:17:23;;;;;;;1.30;0.70;;;;;;;25.74;35.88;101211.59;4999105;28;20017;-89
2021/05/28 11:19:51;;;;;;;6.07;0.80;;;;;;;25.55;36.71;101215.66;5010172;28;20121;-89
2021/05/28 11:22:36;;;;;;;2.05;0.90;;;;;;;25.45;37.71;101217.78;5009600;28;20396;-89
2021/05/28 11:25:08;;;;;;;10.00;2.08;;;;;;;25.47;36.32;101223.81;5019145;28;20084;-89